sensor_id;sensor_type;location;lat;lon;timestamp;P1;durP1;ratioP1;P2;durP2;ratioP2
18669;SDS011;9464;44.918;9.670;2023-02-11T00:00:07;18.50;;;9.60;;
18669;SDS011;9464;44.918;9.670;2023-02-11T00:02:36;19.03;;;10.20;;
18669;SDS011;9464;44.918;9.670;2023-02-11T00:05:04;25.70;;;11.67;;
18669;SDS011;9464;44.918;9.670;2023-02-11T00:07:33;20.37;;;10.23;;
18669;SDS011;9464;44.918;9.670;2023-02-11T00:10:02;21.27;;;11.20;;
18669;SDS011;9464;44.918;9.670;2023-02-11T00:12:33;22.40;;;11.00;;
18669;SDS011;9464;44.918;9.670;2023-02-11T00:15:01;22.93;;;10.90;;
18669;SDS011;9464;44.918;9.670;2023-02-11T00:17:32;25.03;;;11.47;;
18669;SDS011;9464;44.918;9.670;2023-02-11T00:20:00;28.53;;;11.30;;
18669;SDS011;9464;44.918;9.670;2023-02-11T00:22:31;23.50;;;11.90;;
18669;SDS011;9464;44.918;9.670;2023-02-11T00:25:00;23.57;;;11.97;;
18669;SDS011;9464;44.918;9.670;2023-02-11T00:27:29;25.23;;;11.70;;
18669;SDS011;9464;44.918;9.670;2023-02-11T00:29:57;28.70;;;12.67;;
18669;SDS011;9464;44.918;9.670;2023-02-11T00:32:27;26.40;;;11.80;;
18669;SDS011;9464;44.918;9.670;2023-02-11T00:34:57;27.27;;;12.13;;
18669;SDS011;9464;44.918;9.670;2023-02-11T00:37:26;22.73;;;10.63;;
18669;SDS011;9464;44.918;9.670;2023-02-11T00:39:54;23.50;;;11.53;;
18669;SDS011;9464;44.918;9.670;2023-02-11T00:42:23;21.40;;;11.53;;
18669;SDS011;9464;44.918;9.670;2023-02-11T00:44:51;24.57;;;12.73;;
18669;SDS011;9464;44.918;9.670;2023-02-11T00:47:20;29.10;;;12.93;;
18669;SDS011;9464;44.918;9.670;2023-02-11T00:49:48;28.60;;;12.10;;
18669;SDS011;9464;44.918;9.670;2023-02-11T00:52:18;23.80;;;11.97;;
18669;SDS011;9464;44.918;9.670;2023-02-11T00:54:46;22.97;;;11.83;;
18669;SDS011;9464;44.918;9.670;2023-02-11T00:57:15;22.40;;;10.57;;
18669;SDS011;9464;44.918;9.670;2023-02-11T00:59:43;20.67;;;10.30;;
18669;SDS011;9464;44.918;9.670;2023-02-11T01:02:12;21.40;;;9.93;;
18669;SDS011;9464;44.918;9.670;2023-02-11T01:04:58;22.33;;;11.20;;
18669;SDS011;9464;44.918;9.670;2023-02-11T01:07:28;22.93;;;10.67;;
18669;SDS011;9464;44.918;9.670;2023-02-11T01:09:57;22.60;;;10.60;;
18669;SDS011;9464;44.918;9.670;2023-02-11T01:12:25;22.23;;;10.63;;
18669;SDS011;9464;44.918;9.670;2023-02-11T01:14:54;20.37;;;10.90;;
18669;SDS011;9464;44.918;9.670;2023-02-11T01:17:22;20.90;;;9.97;;
18669;SDS011;9464;44.918;9.670;2023-02-11T01:19:51;18.70;;;9.97;;
18669;SDS011;9464;44.918;9.670;2023-02-11T01:22:19;20.37;;;9.83;;
18669;SDS011;9464;44.918;9.670;2023-02-11T01:24:49;20.93;;;9.93;;
18669;SDS011;9464;44.918;9.670;2023-02-11T01:27:18;24.30;;;10.70;;
18669;SDS011;9464;44.918;9.670;2023-02-11T01:29:46;22.97;;;10.67;;
18669;SDS011;9464;44.918;9.670;2023-02-11T01:32:14;22.40;;;10.87;;
18669;SDS011;9464;44.918;9.670;2023-02-11T01:34:43;22.63;;;11.10;;
18669;SDS011;9464;44.918;9.670;2023-02-11T01:37:12;22.43;;;11.63;;
18669;SDS011;9464;44.918;9.670;2023-02-11T01:39:40;22.40;;;10.83;;
18669;SDS011;9464;44.918;9.670;2023-02-11T01:42:10;18.20;;;10.50;;
18669;SDS011;9464;44.918;9.670;2023-02-11T01:44:42;18.97;;;10.33;;
18669;SDS011;9464;44.918;9.670;2023-02-11T01:47:11;19.60;;;8.87;;
18669;SDS011;9464;44.918;9.670;2023-02-11T01:49:40;14.67;;;8.43;;
18669;SDS011;9464;44.918;9.670;2023-02-11T01:52:10;14.27;;;7.53;;
18669;SDS011;9464;44.918;9.670;2023-02-11T01:54:40;14.57;;;7.87;;
18669;SDS011;9464;44.918;9.670;2023-02-11T01:57:30;15.93;;;8.43;;
18669;SDS011;9464;44.918;9.670;2023-02-11T02:02:49;15.40;;;7.80;;
18669;SDS011;9464;44.918;9.670;2023-02-11T02:05:21;14.73;;;7.83;;
18669;SDS011;9464;44.918;9.670;2023-02-11T02:07:53;16.60;;;8.20;;
18669;SDS011;9464;44.918;9.670;2023-02-11T02:10:24;16.97;;;8.10;;
18669;SDS011;9464;44.918;9.670;2023-02-11T02:12:55;14.43;;;7.80;;
18669;SDS011;9464;44.918;9.670;2023-02-11T02:15:25;16.27;;;8.07;;
18669;SDS011;9464;44.918;9.670;2023-02-11T02:18:07;12.90;;;6.47;;
18669;SDS011;9464;44.918;9.670;2023-02-11T02:23:27;13.93;;;7.63;;
18669;SDS011;9464;44.918;9.670;2023-02-11T02:28:49;16.77;;;8.03;;
18669;SDS011;9464;44.918;9.670;2023-02-11T02:31:26;15.47;;;7.23;;
18669;SDS011;9464;44.918;9.670;2023-02-11T02:33:59;13.33;;;7.80;;
18669;SDS011;9464;44.918;9.670;2023-02-11T02:36:30;14.50;;;7.77;;
18669;SDS011;9464;44.918;9.670;2023-02-11T02:39:04;17.37;;;8.27;;
18669;SDS011;9464;44.918;9.670;2023-02-11T02:41:33;15.17;;;7.80;;
18669;SDS011;9464;44.918;9.670;2023-02-11T02:44:02;16.17;;;8.33;;
18669;SDS011;9464;44.918;9.670;2023-02-11T02:46:31;16.57;;;8.27;;
18669;SDS011;9464;44.918;9.670;2023-02-11T02:49:02;18.17;;;7.80;;
18669;SDS011;9464;44.918;9.670;2023-02-11T02:54:41;17.87;;;8.40;;
18669;SDS011;9464;44.918;9.670;2023-02-11T02:57:17;14.43;;;7.80;;
18669;SDS011;9464;44.918;9.670;2023-02-11T02:59:52;15.73;;;8.20;;
18669;SDS011;9464;44.918;9.670;2023-02-11T03:02:28;17.20;;;8.83;;
18669;SDS011;9464;44.918;9.670;2023-02-11T03:05:00;14.60;;;7.00;;
18669;SDS011;9464;44.918;9.670;2023-02-11T03:07:31;16.00;;;7.23;;
18669;SDS011;9464;44.918;9.670;2023-02-11T03:10:05;12.67;;;6.70;;
18669;SDS011;9464;44.918;9.670;2023-02-11T03:12:35;11.33;;;6.90;;
18669;SDS011;9464;44.918;9.670;2023-02-11T03:15:05;14.03;;;7.23;;
18669;SDS011;9464;44.918;9.670;2023-02-11T03:17:34;14.83;;;6.90;;
18669;SDS011;9464;44.918;9.670;2023-02-11T03:20:08;15.53;;;7.83;;
18669;SDS011;9464;44.918;9.670;2023-02-11T03:22:39;15.87;;;8.03;;
18669;SDS011;9464;44.918;9.670;2023-02-11T03:25:08;14.30;;;7.10;;
18669;SDS011;9464;44.918;9.670;2023-02-11T03:27:38;16.83;;;7.43;;
18669;SDS011;9464;44.918;9.670;2023-02-11T03:30:09;13.03;;;7.33;;
18669;SDS011;9464;44.918;9.670;2023-02-11T03:32:39;17.23;;;8.07;;
18669;SDS011;9464;44.918;9.670;2023-02-11T03:35:10;15.47;;;8.03;;
18669;SDS011;9464;44.918;9.670;2023-02-11T03:37:42;13.17;;;6.93;;
18669;SDS011;9464;44.918;9.670;2023-02-11T03:40:12;13.70;;;7.57;;
18669;SDS011;9464;44.918;9.670;2023-02-11T03:42:44;15.07;;;7.17;;
18669;SDS011;9464;44.918;9.670;2023-02-11T03:45:15;12.63;;;6.40;;
18669;SDS011;9464;44.918;9.670;2023-02-11T03:47:45;13.60;;;6.97;;
18669;SDS011;9464;44.918;9.670;2023-02-11T03:50:15;10.87;;;6.83;;
18669;SDS011;9464;44.918;9.670;2023-02-11T03:52:45;14.63;;;6.97;;
18669;SDS011;9464;44.918;9.670;2023-02-11T03:55:16;17.77;;;6.77;;
18669;SDS011;9464;44.918;9.670;2023-02-11T03:57:45;13.97;;;6.63;;
18669;SDS011;9464;44.918;9.670;2023-02-11T04:00:14;16.30;;;6.97;;
18669;SDS011;9464;44.918;9.670;2023-02-11T04:02:42;15.83;;;6.83;;
18669;SDS011;9464;44.918;9.670;2023-02-11T04:05:12;15.57;;;7.10;;
18669;SDS011;9464;44.918;9.670;2023-02-11T04:07:43;11.30;;;6.80;;
18669;SDS011;9464;44.918;9.670;2023-02-11T04:10:11;17.10;;;6.70;;
18669;SDS011;9464;44.918;9.670;2023-02-11T04:12:40;12.63;;;6.57;;
18669;SDS011;9464;44.918;9.670;2023-02-11T04:15:08;11.57;;;6.23;;
18669;SDS011;9464;44.918;9.670;2023-02-11T04:17:37;14.03;;;6.43;;
18669;SDS011;9464;44.918;9.670;2023-02-11T04:20:06;16.93;;;6.43;;
18669;SDS011;9464;44.918;9.670;2023-02-11T04:22:34;13.60;;;6.57;;
18669;SDS011;9464;44.918;9.670;2023-02-11T04:25:05;10.93;;;6.00;;
18669;SDS011;9464;44.918;9.670;2023-02-11T04:27:33;13.03;;;6.53;;
18669;SDS011;9464;44.918;9.670;2023-02-11T04:30:05;12.90;;;6.67;;
18669;SDS011;9464;44.918;9.670;2023-02-11T04:32:34;13.63;;;6.00;;
18669;SDS011;9464;44.918;9.670;2023-02-11T04:35:03;12.57;;;6.70;;
18669;SDS011;9464;44.918;9.670;2023-02-11T04:37:31;12.93;;;6.03;;
18669;SDS011;9464;44.918;9.670;2023-02-11T04:40:00;10.00;;;5.53;;
18669;SDS011;9464;44.918;9.670;2023-02-11T04:42:30;10.87;;;5.70;;
18669;SDS011;9464;44.918;9.670;2023-02-11T04:44:59;10.73;;;5.80;;
18669;SDS011;9464;44.918;9.670;2023-02-11T04:47:27;15.30;;;6.70;;
18669;SDS011;9464;44.918;9.670;2023-02-11T04:49:56;10.93;;;6.00;;
18669;SDS011;9464;44.918;9.670;2023-02-11T04:52:24;10.13;;;5.83;;
18669;SDS011;9464;44.918;9.670;2023-02-11T04:54:53;10.53;;;5.80;;
18669;SDS011;9464;44.918;9.670;2023-02-11T04:57:21;12.60;;;6.13;;
18669;SDS011;9464;44.918;9.670;2023-02-11T04:59:51;12.47;;;5.97;;
18669;SDS011;9464;44.918;9.670;2023-02-11T05:02:19;11.30;;;5.30;;
18669;SDS011;9464;44.918;9.670;2023-02-11T05:04:48;9.30;;;5.50;;
18669;SDS011;9464;44.918;9.670;2023-02-11T05:07:17;10.60;;;5.97;;
18669;SDS011;9464;44.918;9.670;2023-02-11T05:09:45;13.00;;;5.93;;
18669;SDS011;9464;44.918;9.670;2023-02-11T05:12:14;11.90;;;5.93;;
18669;SDS011;9464;44.918;9.670;2023-02-11T05:14:42;12.00;;;6.23;;
18669;SDS011;9464;44.918;9.670;2023-02-11T05:17:12;11.27;;;5.70;;
18669;SDS011;9464;44.918;9.670;2023-02-11T05:19:41;14.57;;;6.07;;
18669;SDS011;9464;44.918;9.670;2023-02-11T05:22:09;13.40;;;5.80;;
18669;SDS011;9464;44.918;9.670;2023-02-11T05:24:38;9.53;;;5.07;;
18669;SDS011;9464;44.918;9.670;2023-02-11T05:27:06;11.17;;;5.10;;
18669;SDS011;9464;44.918;9.670;2023-02-11T05:29:35;12.90;;;5.73;;
18669;SDS011;9464;44.918;9.670;2023-02-11T05:32:04;11.60;;;5.83;;
18669;SDS011;9464;44.918;9.670;2023-02-11T05:34:35;14.73;;;5.90;;
18669;SDS011;9464;44.918;9.670;2023-02-11T05:37:04;13.27;;;5.40;;
18669;SDS011;9464;44.918;9.670;2023-02-11T05:39:33;16.23;;;6.47;;
18669;SDS011;9464;44.918;9.670;2023-02-11T05:42:02;12.63;;;6.37;;
18669;SDS011;9464;44.918;9.670;2023-02-11T05:44:30;13.07;;;6.87;;
18669;SDS011;9464;44.918;9.670;2023-02-11T05:46:59;11.93;;;6.43;;
18669;SDS011;9464;44.918;9.670;2023-02-11T05:49:27;14.87;;;6.60;;
18669;SDS011;9464;44.918;9.670;2023-02-11T05:51:57;13.57;;;6.60;;
18669;SDS011;9464;44.918;9.670;2023-02-11T05:54:26;12.13;;;6.00;;
18669;SDS011;9464;44.918;9.670;2023-02-11T05:56:54;12.20;;;5.90;;
18669;SDS011;9464;44.918;9.670;2023-02-11T05:59:23;13.40;;;6.20;;
18669;SDS011;9464;44.918;9.670;2023-02-11T06:01:51;10.40;;;5.27;;
18669;SDS011;9464;44.918;9.670;2023-02-11T06:04:20;11.13;;;6.60;;
18669;SDS011;9464;44.918;9.670;2023-02-11T06:06:48;11.87;;;5.90;;
18669;SDS011;9464;44.918;9.670;2023-02-11T06:09:18;15.10;;;6.13;;
18669;SDS011;9464;44.918;9.670;2023-02-11T06:11:46;12.23;;;5.87;;
18669;SDS011;9464;44.918;9.670;2023-02-11T06:14:15;9.40;;;5.40;;
18669;SDS011;9464;44.918;9.670;2023-02-11T06:16:43;12.90;;;6.50;;
18669;SDS011;9464;44.918;9.670;2023-02-11T06:19:12;11.03;;;5.80;;
18669;SDS011;9464;44.918;9.670;2023-02-11T06:21:40;12.37;;;6.63;;
18669;SDS011;9464;44.918;9.670;2023-02-11T06:24:10;11.10;;;5.63;;
18669;SDS011;9464;44.918;9.670;2023-02-11T06:26:40;12.17;;;6.80;;
18669;SDS011;9464;44.918;9.670;2023-02-11T06:29:08;10.10;;;5.50;;
18669;SDS011;9464;44.918;9.670;2023-02-11T06:31:38;11.97;;;6.30;;
18669;SDS011;9464;44.918;9.670;2023-02-11T06:34:06;11.00;;;6.00;;
18669;SDS011;9464;44.918;9.670;2023-02-11T06:36:37;10.30;;;5.63;;
18669;SDS011;9464;44.918;9.670;2023-02-11T06:39:06;12.63;;;6.60;;
18669;SDS011;9464;44.918;9.670;2023-02-11T06:41:34;13.63;;;6.63;;
18669;SDS011;9464;44.918;9.670;2023-02-11T06:44:04;10.30;;;5.00;;
18669;SDS011;9464;44.918;9.670;2023-02-11T06:46:33;10.77;;;6.20;;
18669;SDS011;9464;44.918;9.670;2023-02-11T06:49:02;10.97;;;6.07;;
18669;SDS011;9464;44.918;9.670;2023-02-11T06:51:30;11.97;;;7.20;;
18669;SDS011;9464;44.918;9.670;2023-02-11T06:53:58;14.47;;;6.97;;
18669;SDS011;9464;44.918;9.670;2023-02-11T06:56:27;17.87;;;8.03;;
18669;SDS011;9464;44.918;9.670;2023-02-11T06:58:56;16.10;;;8.17;;
18669;SDS011;9464;44.918;9.670;2023-02-11T07:01:26;16.33;;;8.10;;
18669;SDS011;9464;44.918;9.670;2023-02-11T07:03:55;17.03;;;8.07;;
18669;SDS011;9464;44.918;9.670;2023-02-11T07:06:24;16.30;;;7.40;;
18669;SDS011;9464;44.918;9.670;2023-02-11T07:08:53;16.53;;;7.87;;
18669;SDS011;9464;44.918;9.670;2023-02-11T07:11:23;13.63;;;6.80;;
18669;SDS011;9464;44.918;9.670;2023-02-11T07:13:52;10.97;;;5.67;;
18669;SDS011;9464;44.918;9.670;2023-02-11T07:16:21;9.13;;;5.43;;
18669;SDS011;9464;44.918;9.670;2023-02-11T07:18:51;10.97;;;5.83;;
18669;SDS011;9464;44.918;9.670;2023-02-11T07:21:20;13.73;;;7.37;;
18669;SDS011;9464;44.918;9.670;2023-02-11T07:23:49;14.30;;;7.77;;
18669;SDS011;9464;44.918;9.670;2023-02-11T07:26:19;18.60;;;7.73;;
18669;SDS011;9464;44.918;9.670;2023-02-11T07:28:48;21.83;;;9.70;;
18669;SDS011;9464;44.918;9.670;2023-02-11T07:31:18;19.97;;;9.00;;
18669;SDS011;9464;44.918;9.670;2023-02-11T07:33:47;18.93;;;8.83;;
18669;SDS011;9464;44.918;9.670;2023-02-11T07:36:17;15.20;;;8.27;;
18669;SDS011;9464;44.918;9.670;2023-02-11T07:38:46;12.43;;;6.83;;
18669;SDS011;9464;44.918;9.670;2023-02-11T07:41:14;13.97;;;6.97;;
18669;SDS011;9464;44.918;9.670;2023-02-11T07:43:43;13.10;;;6.47;;
18669;SDS011;9464;44.918;9.670;2023-02-11T07:46:14;13.73;;;7.50;;
18669;SDS011;9464;44.918;9.670;2023-02-11T07:48:42;11.80;;;6.70;;
18669;SDS011;9464;44.918;9.670;2023-02-11T07:51:12;12.67;;;7.43;;
18669;SDS011;9464;44.918;9.670;2023-02-11T07:53:42;14.77;;;7.37;;
18669;SDS011;9464;44.918;9.670;2023-02-11T07:56:11;14.30;;;6.93;;
18669;SDS011;9464;44.918;9.670;2023-02-11T07:58:39;12.43;;;6.93;;
18669;SDS011;9464;44.918;9.670;2023-02-11T08:01:09;16.03;;;7.10;;
18669;SDS011;9464;44.918;9.670;2023-02-11T08:03:38;15.00;;;6.63;;
18669;SDS011;9464;44.918;9.670;2023-02-11T08:06:09;13.73;;;7.10;;
18669;SDS011;9464;44.918;9.670;2023-02-11T08:08:37;13.13;;;6.33;;
18669;SDS011;9464;44.918;9.670;2023-02-11T08:11:08;13.03;;;6.60;;
18669;SDS011;9464;44.918;9.670;2023-02-11T08:13:37;11.97;;;6.37;;
18669;SDS011;9464;44.918;9.670;2023-02-11T08:16:06;12.77;;;6.77;;
18669;SDS011;9464;44.918;9.670;2023-02-11T08:18:35;9.77;;;5.90;;
18669;SDS011;9464;44.918;9.670;2023-02-11T08:21:04;16.00;;;6.73;;
18669;SDS011;9464;44.918;9.670;2023-02-11T08:23:32;13.53;;;7.33;;
18669;SDS011;9464;44.918;9.670;2023-02-11T08:26:03;16.47;;;7.03;;
18669;SDS011;9464;44.918;9.670;2023-02-11T08:28:35;19.10;;;8.10;;
18669;SDS011;9464;44.918;9.670;2023-02-11T08:31:04;22.43;;;9.73;;
18669;SDS011;9464;44.918;9.670;2023-02-11T08:33:33;20.13;;;9.17;;
18669;SDS011;9464;44.918;9.670;2023-02-11T08:36:06;18.50;;;8.80;;
18669;SDS011;9464;44.918;9.670;2023-02-11T08:38:35;14.53;;;8.00;;
18669;SDS011;9464;44.918;9.670;2023-02-11T08:41:03;18.20;;;8.10;;
18669;SDS011;9464;44.918;9.670;2023-02-11T08:43:32;15.23;;;8.03;;
18669;SDS011;9464;44.918;9.670;2023-02-11T08:46:02;15.30;;;8.47;;
18669;SDS011;9464;44.918;9.670;2023-02-11T08:48:31;15.57;;;7.80;;
18669;SDS011;9464;44.918;9.670;2023-02-11T08:50:59;13.83;;;7.30;;
18669;SDS011;9464;44.918;9.670;2023-02-11T08:53:27;12.77;;;6.80;;
18669;SDS011;9464;44.918;9.670;2023-02-11T08:55:56;15.07;;;6.73;;
18669;SDS011;9464;44.918;9.670;2023-02-11T08:58:25;13.57;;;6.63;;
18669;SDS011;9464;44.918;9.670;2023-02-11T09:00:53;13.83;;;7.50;;
18669;SDS011;9464;44.918;9.670;2023-02-11T09:03:23;13.53;;;7.23;;
18669;SDS011;9464;44.918;9.670;2023-02-11T09:05:51;15.33;;;6.50;;
18669;SDS011;9464;44.918;9.670;2023-02-11T09:08:20;12.13;;;7.70;;
18669;SDS011;9464;44.918;9.670;2023-02-11T09:10:48;14.50;;;7.33;;
18669;SDS011;9464;44.918;9.670;2023-02-11T09:13:17;14.63;;;6.87;;
18669;SDS011;9464;44.918;9.670;2023-02-11T09:15:46;12.20;;;6.77;;
18669;SDS011;9464;44.918;9.670;2023-02-11T09:18:15;18.50;;;10.13;;
18669;SDS011;9464;44.918;9.670;2023-02-11T09:20:45;25.80;;;13.77;;
18669;SDS011;9464;44.918;9.670;2023-02-11T09:23:13;17.23;;;11.00;;
18669;SDS011;9464;44.918;9.670;2023-02-11T09:25:43;15.53;;;9.27;;
18669;SDS011;9464;44.918;9.670;2023-02-11T09:28:12;13.13;;;7.47;;
18669;SDS011;9464;44.918;9.670;2023-02-11T09:30:40;12.77;;;6.80;;
18669;SDS011;9464;44.918;9.670;2023-02-11T09:33:09;11.70;;;6.97;;
18669;SDS011;9464;44.918;9.670;2023-02-11T09:35:37;12.13;;;6.80;;
18669;SDS011;9464;44.918;9.670;2023-02-11T09:38:07;14.13;;;7.67;;
18669;SDS011;9464;44.918;9.670;2023-02-11T09:40:36;17.13;;;7.60;;
18669;SDS011;9464;44.918;9.670;2023-02-11T09:43:10;11.73;;;6.90;;
18669;SDS011;9464;44.918;9.670;2023-02-11T09:45:41;18.50;;;7.87;;
18669;SDS011;9464;44.918;9.670;2023-02-11T09:48:11;16.53;;;8.03;;
18669;SDS011;9464;44.918;9.670;2023-02-11T09:50:41;19.00;;;7.83;;
18669;SDS011;9464;44.918;9.670;2023-02-11T09:53:12;15.50;;;8.07;;
18669;SDS011;9464;44.918;9.670;2023-02-11T09:55:42;15.33;;;7.93;;
18669;SDS011;9464;44.918;9.670;2023-02-11T09:58:12;17.97;;;8.53;;
18669;SDS011;9464;44.918;9.670;2023-02-11T10:00:42;13.40;;;7.13;;
18669;SDS011;9464;44.918;9.670;2023-02-11T10:03:25;16.67;;;8.43;;
18669;SDS011;9464;44.918;9.670;2023-02-11T10:06:05;13.73;;;7.83;;
18669;SDS011;9464;44.918;9.670;2023-02-11T10:08:38;13.13;;;7.37;;
18669;SDS011;9464;44.918;9.670;2023-02-11T10:11:10;14.57;;;8.00;;
18669;SDS011;9464;44.918;9.670;2023-02-11T10:13:58;15.73;;;8.87;;
18669;SDS011;9464;44.918;9.670;2023-02-11T10:16:33;17.73;;;9.60;;
18669;SDS011;9464;44.918;9.670;2023-02-11T10:19:12;19.77;;;9.50;;
18669;SDS011;9464;44.918;9.670;2023-02-11T10:21:47;15.83;;;8.40;;
18669;SDS011;9464;44.918;9.670;2023-02-11T10:24:19;17.10;;;8.50;;
18669;SDS011;9464;44.918;9.670;2023-02-11T10:26:48;14.30;;;8.70;;
18669;SDS011;9464;44.918;9.670;2023-02-11T10:29:28;15.20;;;7.93;;
18669;SDS011;9464;44.918;9.670;2023-02-11T10:31:59;15.17;;;8.20;;
18669;SDS011;9464;44.918;9.670;2023-02-11T10:34:27;14.57;;;7.80;;
18669;SDS011;9464;44.918;9.670;2023-02-11T10:36:56;14.57;;;8.20;;
18669;SDS011;9464;44.918;9.670;2023-02-11T10:39:27;15.33;;;7.93;;
18669;SDS011;9464;44.918;9.670;2023-02-11T10:41:58;18.03;;;8.20;;
18669;SDS011;9464;44.918;9.670;2023-02-11T10:44:29;14.37;;;7.47;;
18669;SDS011;9464;44.918;9.670;2023-02-11T10:47:00;16.33;;;7.67;;
18669;SDS011;9464;44.918;9.670;2023-02-11T10:49:37;15.50;;;8.17;;
18669;SDS011;9464;44.918;9.670;2023-02-11T10:55:05;19.50;;;9.50;;
18669;SDS011;9464;44.918;9.670;2023-02-11T10:57:42;20.03;;;9.90;;
18669;SDS011;9464;44.918;9.670;2023-02-11T11:00:28;21.77;;;11.07;;
18669;SDS011;9464;44.918;9.670;2023-02-11T11:02:59;21.67;;;11.80;;
18669;SDS011;9464;44.918;9.670;2023-02-11T11:05:29;23.40;;;12.27;;
18669;SDS011;9464;44.918;9.670;2023-02-11T11:07:59;33.73;;;13.40;;
18669;SDS011;9464;44.918;9.670;2023-02-11T11:10:30;26.20;;;14.33;;
18669;SDS011;9464;44.918;9.670;2023-02-11T11:13:02;21.20;;;12.57;;
18669;SDS011;9464;44.918;9.670;2023-02-11T11:15:30;26.87;;;14.23;;
18669;SDS011;9464;44.918;9.670;2023-02-11T11:18:09;28.00;;;14.13;;
18669;SDS011;9464;44.918;9.670;2023-02-11T11:20:53;26.20;;;13.10;;
18669;SDS011;9464;44.918;9.670;2023-02-11T11:23:22;24.43;;;13.30;;
18669;SDS011;9464;44.918;9.670;2023-02-11T11:26:00;29.23;;;14.07;;
18669;SDS011;9464;44.918;9.670;2023-02-11T11:28:30;32.30;;;15.07;;
18669;SDS011;9464;44.918;9.670;2023-02-11T11:31:02;27.40;;;15.40;;
18669;SDS011;9464;44.918;9.670;2023-02-11T11:33:32;29.33;;;14.17;;
18669;SDS011;9464;44.918;9.670;2023-02-11T11:36:02;24.27;;;13.80;;
18669;SDS011;9464;44.918;9.670;2023-02-11T11:38:31;24.97;;;14.60;;
18669;SDS011;9464;44.918;9.670;2023-02-11T11:41:13;25.10;;;13.03;;
18669;SDS011;9464;44.918;9.670;2023-02-11T11:43:52;26.03;;;14.60;;
18669;SDS011;9464;44.918;9.670;2023-02-11T11:46:22;25.73;;;13.97;;
18669;SDS011;9464;44.918;9.670;2023-02-11T11:48:51;35.20;;;15.70;;
18669;SDS011;9464;44.918;9.670;2023-02-11T11:51:22;26.63;;;13.47;;
18669;SDS011;9464;44.918;9.670;2023-02-11T11:53:52;25.20;;;13.60;;
18669;SDS011;9464;44.918;9.670;2023-02-11T11:56:25;28.27;;;13.83;;
18669;SDS011;9464;44.918;9.670;2023-02-11T11:58:55;26.40;;;13.90;;
18669;SDS011;9464;44.918;9.670;2023-02-11T12:01:28;25.70;;;13.23;;
18669;SDS011;9464;44.918;9.670;2023-02-11T12:04:04;31.60;;;14.63;;
18669;SDS011;9464;44.918;9.670;2023-02-11T12:06:39;25.27;;;13.50;;
18669;SDS011;9464;44.918;9.670;2023-02-11T12:09:11;24.30;;;13.67;;
18669;SDS011;9464;44.918;9.670;2023-02-11T12:11:52;28.57;;;14.33;;
18669;SDS011;9464;44.918;9.670;2023-02-11T12:14:25;25.03;;;13.87;;
18669;SDS011;9464;44.918;9.670;2023-02-11T12:16:59;30.97;;;15.17;;
18669;SDS011;9464;44.918;9.670;2023-02-11T12:22:18;26.87;;;14.00;;
18669;SDS011;9464;44.918;9.670;2023-02-11T12:24:56;26.97;;;13.97;;
18669;SDS011;9464;44.918;9.670;2023-02-11T12:27:31;28.43;;;14.17;;
18669;SDS011;9464;44.918;9.670;2023-02-11T12:30:06;27.67;;;13.73;;
18669;SDS011;9464;44.918;9.670;2023-02-11T12:32:37;25.63;;;13.13;;
18669;SDS011;9464;44.918;9.670;2023-02-11T12:40:42;27.50;;;13.83;;
18669;SDS011;9464;44.918;9.670;2023-02-11T12:43:16;20.07;;;11.20;;
18669;SDS011;9464;44.918;9.670;2023-02-11T12:45:53;23.37;;;12.73;;
18669;SDS011;9464;44.918;9.670;2023-02-11T12:48:30;26.93;;;12.63;;
18669;SDS011;9464;44.918;9.670;2023-02-11T12:51:03;25.50;;;13.03;;
18669;SDS011;9464;44.918;9.670;2023-02-11T12:53:37;23.70;;;13.23;;
18669;SDS011;9464;44.918;9.670;2023-02-11T12:56:11;29.00;;;13.67;;
18669;SDS011;9464;44.918;9.670;2023-02-11T12:58:43;27.50;;;13.87;;
18669;SDS011;9464;44.918;9.670;2023-02-11T13:01:15;27.10;;;13.27;;
18669;SDS011;9464;44.918;9.670;2023-02-11T13:03:46;25.27;;;13.43;;
18669;SDS011;9464;44.918;9.670;2023-02-11T13:06:16;27.30;;;12.93;;
18669;SDS011;9464;44.918;9.670;2023-02-11T13:08:47;24.50;;;12.63;;
18669;SDS011;9464;44.918;9.670;2023-02-11T13:11:19;28.73;;;12.80;;
18669;SDS011;9464;44.918;9.670;2023-02-11T13:13:50;24.60;;;13.80;;
18669;SDS011;9464;44.918;9.670;2023-02-11T13:16:22;22.63;;;11.93;;
18669;SDS011;9464;44.918;9.670;2023-02-11T13:18:54;25.13;;;14.37;;
18669;SDS011;9464;44.918;9.670;2023-02-11T13:21:31;27.27;;;13.73;;
18669;SDS011;9464;44.918;9.670;2023-02-11T13:24:05;24.83;;;11.37;;
18669;SDS011;9464;44.918;9.670;2023-02-11T13:26:38;22.43;;;12.37;;
18669;SDS011;9464;44.918;9.670;2023-02-11T13:31:55;24.63;;;12.57;;
18669;SDS011;9464;44.918;9.670;2023-02-11T13:37:20;23.47;;;12.90;;
18669;SDS011;9464;44.918;9.670;2023-02-11T13:39:56;22.57;;;12.40;;
18669;SDS011;9464;44.918;9.670;2023-02-11T13:42:25;22.97;;;12.50;;
18669;SDS011;9464;44.918;9.670;2023-02-11T13:44:53;24.53;;;13.50;;
18669;SDS011;9464;44.918;9.670;2023-02-11T13:47:27;25.17;;;13.20;;
18669;SDS011;9464;44.918;9.670;2023-02-11T13:49:57;22.97;;;13.57;;
18669;SDS011;9464;44.918;9.670;2023-02-11T13:52:27;24.53;;;13.23;;
18669;SDS011;9464;44.918;9.670;2023-02-11T13:54:57;25.47;;;13.40;;
18669;SDS011;9464;44.918;9.670;2023-02-11T13:57:30;25.80;;;13.53;;
18669;SDS011;9464;44.918;9.670;2023-02-11T13:59:59;25.20;;;14.50;;
18669;SDS011;9464;44.918;9.670;2023-02-11T14:02:31;29.50;;;15.80;;
18669;SDS011;9464;44.918;9.670;2023-02-11T14:05:19;20.80;;;13.03;;
18669;SDS011;9464;44.918;9.670;2023-02-11T14:08:11;38.90;;;18.70;;
18669;SDS011;9464;44.918;9.670;2023-02-11T14:10:58;25.30;;;14.30;;
18669;SDS011;9464;44.918;9.670;2023-02-11T14:13:27;28.40;;;14.50;;
18669;SDS011;9464;44.918;9.670;2023-02-11T14:16:03;27.43;;;14.50;;
18669;SDS011;9464;44.918;9.670;2023-02-11T14:21:28;23.80;;;13.40;;
18669;SDS011;9464;44.918;9.670;2023-02-11T14:26:42;26.63;;;14.57;;
18669;SDS011;9464;44.918;9.670;2023-02-11T14:29:14;28.57;;;14.60;;
18669;SDS011;9464;44.918;9.670;2023-02-11T14:31:46;27.77;;;14.63;;
18669;SDS011;9464;44.918;9.670;2023-02-11T14:34:22;25.03;;;14.13;;
18669;SDS011;9464;44.918;9.670;2023-02-11T14:37:06;24.63;;;14.67;;
18669;SDS011;9464;44.918;9.670;2023-02-11T14:39:45;27.47;;;14.70;;
18669;SDS011;9464;44.918;9.670;2023-02-11T14:42:18;30.23;;;15.13;;
18669;SDS011;9464;44.918;9.670;2023-02-11T14:44:48;25.83;;;14.27;;
18669;SDS011;9464;44.918;9.670;2023-02-11T14:47:17;30.50;;;14.77;;
18669;SDS011;9464;44.918;9.670;2023-02-11T14:49:46;26.90;;;14.83;;
18669;SDS011;9464;44.918;9.670;2023-02-11T14:52:24;29.27;;;14.40;;
18669;SDS011;9464;44.918;9.670;2023-02-11T14:54:55;25.87;;;14.77;;
18669;SDS011;9464;44.918;9.670;2023-02-11T14:57:27;27.50;;;15.00;;
18669;SDS011;9464;44.918;9.670;2023-02-11T14:59:56;28.17;;;14.53;;
18669;SDS011;9464;44.918;9.670;2023-02-11T15:02:28;24.13;;;14.10;;
18669;SDS011;9464;44.918;9.670;2023-02-11T15:05:12;28.17;;;15.50;;
18669;SDS011;9464;44.918;9.670;2023-02-11T15:07:47;27.33;;;15.13;;
18669;SDS011;9464;44.918;9.670;2023-02-11T15:10:20;29.33;;;15.47;;
18669;SDS011;9464;44.918;9.670;2023-02-11T15:12:50;29.13;;;15.43;;
18669;SDS011;9464;44.918;9.670;2023-02-11T15:15:18;31.93;;;16.10;;
18669;SDS011;9464;44.918;9.670;2023-02-11T15:17:47;28.53;;;14.87;;
18669;SDS011;9464;44.918;9.670;2023-02-11T15:20:17;29.37;;;14.80;;
18669;SDS011;9464;44.918;9.670;2023-02-11T15:22:48;24.27;;;14.23;;
18669;SDS011;9464;44.918;9.670;2023-02-11T15:25:17;30.83;;;15.23;;
18669;SDS011;9464;44.918;9.670;2023-02-11T15:27:49;47.67;;;20.00;;
18669;SDS011;9464;44.918;9.670;2023-02-11T15:30:24;42.50;;;23.27;;
18669;SDS011;9464;44.918;9.670;2023-02-11T15:32:54;34.47;;;18.63;;
18669;SDS011;9464;44.918;9.670;2023-02-11T15:35:24;45.67;;;22.00;;
18669;SDS011;9464;44.918;9.670;2023-02-11T15:37:55;31.70;;;17.27;;